createdAt,value
2018-01-30T00:00:12.485Z,1.10
2018-01-30T00:01:15.020Z,1.33
2018-01-30T00:02:17.537Z,1.00
2018-01-30T00:03:20.049Z,0.82
2018-01-30T00:04:22.565Z,1.58
2018-01-30T00:05:25.073Z,1.17
2018-01-30T00:06:27.621Z,1.15
2018-01-30T00:07:30.955Z,1.95
2018-01-30T00:08:33.477Z,1.65
2018-01-30T00:09:36.753Z,1.20
2018-01-30T00:10:40.046Z,1.25
2018-01-30T00:11:43.324Z,1.60
2018-01-30T00:12:46.654Z,1.12
2018-01-30T00:13:49.165Z,2.05
2018-01-30T00:14:51.690Z,1.00
2018-01-30T00:15:54.209Z,1.40
2018-01-30T00:16:57.546Z,1.27
2018-01-30T00:18:00.110Z,0.90
2018-01-30T00:19:02.621Z,1.00
2018-01-30T00:20:05.901Z,1.10
2018-01-30T00:21:09.189Z,1.10
2018-01-30T00:22:12.477Z,1.20
2018-01-30T00:23:15.790Z,1.23
2018-01-30T00:24:18.306Z,1.58
2018-01-30T00:25:20.834Z,1.17
2018-01-30T00:26:23.348Z,1.12
2018-01-30T00:27:25.886Z,0.90
2018-01-30T00:28:28.429Z,1.02
2018-01-30T00:29:30.936Z,1.05
2018-01-30T00:30:33.446Z,1.17
2018-01-30T00:31:35.994Z,0.90
2018-01-30T00:32:39.289Z,1.12
2018-01-30T00:33:41.814Z,1.17
2018-01-30T00:34:44.327Z,1.10
2018-01-30T00:35:46.877Z,1.35
2018-01-30T00:36:49.395Z,1.10
2018-01-30T00:37:51.905Z,1.10
2018-01-30T00:38:55.182Z,1.00
2018-01-30T00:39:58.466Z,1.12
2018-01-30T00:41:01.790Z,0.98
2018-01-30T00:42:04.308Z,1.00
2018-01-30T00:43:06.816Z,1.05
2018-01-30T00:44:09.369Z,1.30
2018-01-30T00:45:11.882Z,1.02
2018-01-30T00:46:14.403Z,0.95
2018-01-30T00:47:16.908Z,1.00
2018-01-30T00:48:19.445Z,1.37
2018-01-30T00:49:21.962Z,1.10
2018-01-30T00:50:24.477Z,1.12
2018-01-30T00:51:26.990Z,1.10
2018-01-30T00:52:29.561Z,1.42
2018-01-30T00:53:32.073Z,1.73
2018-01-30T00:54:34.590Z,1.45
2018-01-30T00:55:37.109Z,1.15
2018-01-30T00:56:39.621Z,1.10
2018-01-30T00:57:42.169Z,1.00
2018-01-30T00:58:44.682Z,1.27
2018-01-30T00:59:47.195Z,1.42
2018-01-30T01:00:49.723Z,1.60
2018-01-30T01:01:52.250Z,1.27
2018-01-30T01:02:54.794Z,1.12
2018-01-30T01:03:57.345Z,1.20
2018-01-30T01:04:59.910Z,1.30
2018-01-30T01:06:02.420Z,1.35
2018-01-30T01:07:04.934Z,1.30
2018-01-30T01:08:07.484Z,1.45
2018-01-30T01:09:10.017Z,1.10
2018-01-30T01:10:12.533Z,1.30
2018-01-30T01:11:15.046Z,1.05
2018-01-30T01:12:18.330Z,1.20
2018-01-30T01:13:20.897Z,1.70
2018-01-30T01:14:23.400Z,1.27
2018-01-30T01:15:25.943Z,0.98
2018-01-30T01:16:29.221Z,1.20
2018-01-30T01:17:32.493Z,1.77
2018-01-30T01:18:35.037Z,1.10
2018-01-30T01:19:37.544Z,1.50
2018-01-30T01:20:40.821Z,1.33
2018-01-30T01:21:44.154Z,1.08
2018-01-30T01:22:46.685Z,1.20
2018-01-30T01:23:49.221Z,1.45
2018-01-30T01:24:51.738Z,1.75
2018-01-30T01:25:54.251Z,1.30
2018-01-30T01:26:56.802Z,1.08
2018-01-30T01:27:59.317Z,1.33
2018-01-30T01:29:01.893Z,1.50
2018-01-30T01:30:04.426Z,2.20
2018-01-30T01:31:07.703Z,1.62
2018-01-30T01:32:10.257Z,1.90
2018-01-30T01:33:12.775Z,1.33
2018-01-30T01:34:15.293Z,1.05
2018-01-30T01:35:17.810Z,1.75
2018-01-30T01:36:20.317Z,2.30
2018-01-30T01:37:22.857Z,1.35
2018-01-30T01:38:25.368Z,1.52
2018-01-30T01:39:27.916Z,1.50
2018-01-30T01:40:30.425Z,1.30
2018-01-30T01:41:32.942Z,1.45
2018-01-30T01:42:35.454Z,1.52
2018-01-30T01:43:38.007Z,1.33
2018-01-30T01:44:41.317Z,1.50
2018-01-30T01:45:43.841Z,1.27
2018-01-30T01:46:46.361Z,0.90
2018-01-30T01:47:48.870Z,1.48
2018-01-30T01:48:51.379Z,1.30
2018-01-30T01:49:53.918Z,1.40
2018-01-30T01:50:57.264Z,1.55
2018-01-30T01:51:59.784Z,1.20
2018-01-30T01:53:03.102Z,0.98
2018-01-30T01:54:05.622Z,1.30
2018-01-30T01:55:08.898Z,1.20
2018-01-30T01:56:12.236Z,1.10
2018-01-30T01:57:14.740Z,1.20
2018-01-30T01:58:17.252Z,1.77
2018-01-30T01:59:19.766Z,1.27
2018-01-30T02:00:22.273Z,1.62
2018-01-30T02:01:24.905Z,1.23
2018-01-30T02:02:27.412Z,1.20
2018-01-30T02:03:29.930Z,1.00
2018-01-30T02:04:32.439Z,1.55
2018-01-30T02:05:34.981Z,1.20
2018-01-30T02:06:38.253Z,1.08
2018-01-30T02:07:40.769Z,1.40
2018-01-30T02:08:43.281Z,1.10
2018-01-30T02:09:45.825Z,1.60
2018-01-30T02:10:48.335Z,1.25
2018-01-30T02:11:51.623Z,1.45
2018-01-30T02:12:54.911Z,1.10
2018-01-30T02:13:57.480Z,1.10
2018-01-30T02:14:59.996Z,1.20
2018-01-30T02:16:02.508Z,1.70
2018-01-30T02:17:05.031Z,2.75
2018-01-30T02:18:07.597Z,1.70
2018-01-30T02:19:10.109Z,1.00
2018-01-30T02:20:12.633Z,1.25
2018-01-30T02:21:15.157Z,1.30
2018-01-30T02:22:17.670Z,1.75
2018-01-30T02:23:20.221Z,1.20
2018-01-30T02:24:22.765Z,1.48
2018-01-30T02:25:25.305Z,1.20
2018-01-30T02:26:27.820Z,0.98
2018-01-30T02:27:30.335Z,1.30
2018-01-30T02:28:32.856Z,1.98
2018-01-30T02:29:35.406Z,1.23
2018-01-30T02:30:37.935Z,2.15
2018-01-30T02:31:40.480Z,1.10
2018-01-30T02:32:43.805Z,1.20
2018-01-30T02:33:46.322Z,1.48
2018-01-30T02:34:48.829Z,1.20
2018-01-30T02:35:51.344Z,1.50
2018-01-30T02:36:53.868Z,1.67
2018-01-30T02:37:56.409Z,2.03
2018-01-30T02:38:58.920Z,1.12
2018-01-30T02:40:01.437Z,1.65
2018-01-30T02:41:04.794Z,1.60
2018-01-30T02:42:07.345Z,2.37
2018-01-30T02:43:09.860Z,1.60
2018-01-30T02:44:12.375Z,1.25
2018-01-30T02:45:14.889Z,1.50
2018-01-30T02:46:17.433Z,1.60
2018-01-30T02:47:20.734Z,1.48
2018-01-30T02:48:24.012Z,1.00
2018-01-30T02:49:27.302Z,1.30
2018-01-30T02:50:30.614Z,1.85
2018-01-30T02:51:33.167Z,1.20
2018-01-30T02:52:35.684Z,1.70
2018-01-30T02:53:38.193Z,1.15
2018-01-30T02:54:40.721Z,1.40
2018-01-30T02:55:43.276Z,1.40
2018-01-30T02:56:45.791Z,1.30
2018-01-30T02:57:48.306Z,1.15
2018-01-30T02:58:50.850Z,1.65
2018-01-30T02:59:53.361Z,1.10
2018-01-30T03:00:55.905Z,1.60
2018-01-30T03:01:58.462Z,1.70
2018-01-30T03:03:00.993Z,1.05
2018-01-30T03:04:03.557Z,2.33
2018-01-30T03:05:06.068Z,1.40
2018-01-30T03:06:08.587Z,1.50
2018-01-30T03:07:11.101Z,1.02
2018-01-30T03:08:13.618Z,1.52
2018-01-30T03:09:16.169Z,1.00
2018-01-30T03:10:19.461Z,1.65
2018-01-30T03:11:21.972Z,1.30
2018-01-30T03:12:24.484Z,1.12
2018-01-30T03:13:27.764Z,1.27
2018-01-30T03:14:31.094Z,1.15
2018-01-30T03:15:33.613Z,1.30
2018-01-30T03:16:36.897Z,1.20
2018-01-30T03:17:40.177Z,1.12
2018-01-30T03:18:42.685Z,1.80
2018-01-30T03:19:45.238Z,1.42
2018-01-30T03:20:47.785Z,1.20
2018-01-30T03:21:51.070Z,1.35
2018-01-30T03:22:54.353Z,1.30
2018-01-30T03:23:57.669Z,1.37
2018-01-30T03:25:00.454Z,1.30
2018-01-30T03:26:02.965Z,1.40
2018-01-30T03:27:06.324Z,1.80
2018-01-30T03:28:08.853Z,1.45
2018-01-30T03:29:11.378Z,1.30
2018-01-30T03:30:14.650Z,1.40
2018-01-30T03:31:17.201Z,2.00
2018-01-30T03:32:19.754Z,1.33
2018-01-30T03:33:22.272Z,1.20
2018-01-30T03:34:25.553Z,1.40
2018-01-30T03:35:28.861Z,1.40
2018-01-30T03:36:31.409Z,1.70
2018-01-30T03:37:34.721Z,1.48
2018-01-30T03:38:37.228Z,1.40
2018-01-30T03:39:39.752Z,1.30
2018-01-30T03:40:42.269Z,1.30
2018-01-30T03:41:44.789Z,1.65
2018-01-30T03:42:47.337Z,1.30
2018-01-30T03:43:49.853Z,1.40
2018-01-30T03:44:52.362Z,1.30
2018-01-30T03:45:54.876Z,1.48
2018-01-30T03:46:57.410Z,1.40
2018-01-30T03:47:59.974Z,1.95
2018-01-30T03:49:02.586Z,1.40
2018-01-30T03:50:05.098Z,1.50
2018-01-30T03:51:07.621Z,1.50
2018-01-30T03:52:10.124Z,2.05
2018-01-30T03:53:12.670Z,1.70
2018-01-30T03:54:15.981Z,1.50
2018-01-30T03:55:18.490Z,1.30
2018-01-30T03:56:21.000Z,1.83
2018-01-30T03:57:24.273Z,1.00
2018-01-30T03:58:27.577Z,1.87
2018-01-30T03:59:30.146Z,2.12
2018-01-30T04:00:32.693Z,2.10
2018-01-30T04:01:36.003Z,1.55
2018-01-30T04:02:38.513Z,1.67
2018-01-30T04:03:41.025Z,1.70
2018-01-30T04:04:43.588Z,1.87
2018-01-30T04:05:46.144Z,2.50
2018-01-30T04:06:49.421Z,1.33
2018-01-30T04:07:52.693Z,1.60
2018-01-30T04:08:55.209Z,1.75
2018-01-30T04:09:57.729Z,1.50
2018-01-30T04:11:01.041Z,1.62
2018-01-30T04:12:03.549Z,1.50
2018-01-30T04:13:06.065Z,1.40
2018-01-30T04:14:08.578Z,1.40
2018-01-30T04:15:11.100Z,1.87
2018-01-30T04:16:13.638Z,1.30
2018-01-30T04:17:16.152Z,1.90
2018-01-30T04:18:18.664Z,1.95
2018-01-30T04:19:21.180Z,1.70
2018-01-30T04:20:23.720Z,1.55
2018-01-30T04:21:26.333Z,1.48
2018-01-30T04:22:28.843Z,1.77
2018-01-30T04:23:32.136Z,1.85
2018-01-30T04:24:35.417Z,2.00
2018-01-30T04:25:38.738Z,2.17
2018-01-30T04:26:41.297Z,1.12
2018-01-30T04:27:43.809Z,2.00
2018-01-30T04:28:46.324Z,1.95
2018-01-30T04:29:48.841Z,1.50
2018-01-30T04:30:51.349Z,1.87
2018-01-30T04:31:53.884Z,1.70
2018-01-30T04:32:56.393Z,1.80
2018-01-30T04:33:58.901Z,1.50
2018-01-30T04:35:01.423Z,2.17
2018-01-30T04:36:03.935Z,1.98
2018-01-30T04:37:06.499Z,3.62
2018-01-30T04:38:09.008Z,1.60
2018-01-30T04:39:11.524Z,1.95
2018-01-30T04:40:14.037Z,1.70
2018-01-30T04:41:16.548Z,2.15
2018-01-30T04:42:19.088Z,1.60
2018-01-30T04:43:21.654Z,1.98
2018-01-30T04:44:24.171Z,1.45
2018-01-30T04:45:26.696Z,1.87
2018-01-30T04:46:29.203Z,2.03
2018-01-30T04:47:32.480Z,1.48
2018-01-30T04:48:35.030Z,1.70
2018-01-30T04:49:37.585Z,1.60
2018-01-30T04:50:40.094Z,2.37
2018-01-30T04:51:42.632Z,2.00
2018-01-30T04:52:45.146Z,1.60
2018-01-30T04:53:47.699Z,1.42
2018-01-30T04:54:50.973Z,1.65
2018-01-30T04:55:54.250Z,1.60
2018-01-30T04:56:56.756Z,1.60
2018-01-30T04:57:59.269Z,2.03
2018-01-30T04:59:01.824Z,2.20
2018-01-30T05:00:04.343Z,2.10
2018-01-30T05:01:06.849Z,2.00
2018-01-30T05:02:09.380Z,1.80
2018-01-30T05:03:11.949Z,1.58
2018-01-30T05:04:14.493Z,1.98
2018-01-30T05:05:17.804Z,1.80
2018-01-30T05:06:20.313Z,1.60
2018-01-30T05:07:22.877Z,1.77
2018-01-30T05:09:34.546Z,2.17
2018-01-30T05:10:37.061Z,2.00
2018-01-30T05:11:40.339Z,1.80
2018-01-30T05:12:43.648Z,2.10
2018-01-30T05:13:46.164Z,1.58
2018-01-30T05:14:48.682Z,2.20
2018-01-30T05:15:51.198Z,1.83
2018-01-30T05:16:53.744Z,2.00
2018-01-30T05:17:56.263Z,1.80
2018-01-30T05:18:58.793Z,2.47
2018-01-30T05:20:01.305Z,2.35
2018-01-30T05:21:03.840Z,2.05
2018-01-30T05:22:06.397Z,3.35
2018-01-30T05:23:08.920Z,2.62
2018-01-30T05:24:11.427Z,2.08
2018-01-30T05:25:13.988Z,1.75
2018-01-30T05:26:16.501Z,2.10
2018-01-30T05:27:19.057Z,3.15
2018-01-30T05:28:22.353Z,2.47
2018-01-30T05:29:24.897Z,2.60
2018-01-30T05:30:28.201Z,1.55
2018-01-30T05:31:30.719Z,2.60
2018-01-30T05:32:33.264Z,4.05
2018-01-30T05:33:35.784Z,2.10
2018-01-30T05:34:39.079Z,1.90
2018-01-30T05:35:41.600Z,2.05
2018-01-30T05:36:44.101Z,2.15
2018-01-30T05:37:47.420Z,2.45
2018-01-30T05:38:49.936Z,1.85
2018-01-30T05:39:53.223Z,1.80
2018-01-30T05:40:56.495Z,1.75
2018-01-30T05:41:59.065Z,1.55
2018-01-30T05:43:01.583Z,2.08
2018-01-30T05:44:04.097Z,1.90
2018-01-30T05:45:06.617Z,1.90
2018-01-30T05:46:09.136Z,2.10
2018-01-30T05:47:12.452Z,1.50
2018-01-30T05:48:14.996Z,2.62
2018-01-30T05:49:18.280Z,2.00
2018-01-30T05:50:21.569Z,2.20
2018-01-30T05:51:24.097Z,1.90
2018-01-30T05:52:26.604Z,1.90
2018-01-30T05:53:29.163Z,1.52
2018-01-30T05:54:31.680Z,1.70
2018-01-30T05:55:34.196Z,1.98
2018-01-30T05:56:36.704Z,2.00
2018-01-30T05:57:39.216Z,2.17
2018-01-30T05:58:42.528Z,1.67
2018-01-30T05:59:45.045Z,2.05
2018-01-30T06:00:47.597Z,1.92
2018-01-30T06:01:50.115Z,1.60
2018-01-30T06:02:52.637Z,2.47
2018-01-30T06:03:55.159Z,1.85
2018-01-30T06:04:57.682Z,2.03
2018-01-30T06:06:00.244Z,2.20
2018-01-30T06:07:02.753Z,1.70
2018-01-30T06:08:05.268Z,2.10
2018-01-30T06:09:07.799Z,1.80
2018-01-30T06:10:10.312Z,1.58
2018-01-30T06:11:13.637Z,1.75
2018-01-30T06:12:16.193Z,1.90
2018-01-30T06:13:18.718Z,2.22
2018-01-30T06:14:21.237Z,1.73
2018-01-30T06:15:23.758Z,2.25
2018-01-30T06:16:26.300Z,2.30
2018-01-30T06:17:28.819Z,1.90
2018-01-30T06:18:31.324Z,2.25
2018-01-30T06:19:33.875Z,1.95
2018-01-30T06:20:36.392Z,1.55
2018-01-30T06:21:38.928Z,1.80
2018-01-30T06:22:41.472Z,2.50
2018-01-30T06:23:43.993Z,2.05
2018-01-30T06:24:47.341Z,2.42
2018-01-30T06:25:49.867Z,2.20
2018-01-30T06:26:52.380Z,1.87
2018-01-30T06:27:54.892Z,1.80
2018-01-30T06:28:58.180Z,1.90
2018-01-30T06:30:00.740Z,1.33
2018-01-30T06:31:03.259Z,2.33
2018-01-30T06:32:05.764Z,1.80
2018-01-30T06:33:09.048Z,2.15
2018-01-30T06:34:12.344Z,2.20
2018-01-30T06:35:14.985Z,1.90
2018-01-30T06:36:17.507Z,1.92
2018-01-30T06:37:20.033Z,2.40
2018-01-30T06:38:23.324Z,2.12
2018-01-30T06:39:26.609Z,2.00
2018-01-30T06:40:29.924Z,2.12
2018-01-30T06:41:32.460Z,1.92
2018-01-30T06:42:34.992Z,2.25
2018-01-30T06:43:37.501Z,1.87
2018-01-30T06:44:40.032Z,2.28
2018-01-30T06:45:42.588Z,2.85
2018-01-30T06:46:45.103Z,1.90
2018-01-30T06:47:47.627Z,1.90
2018-01-30T06:48:50.165Z,2.08
2018-01-30T06:49:52.692Z,2.12
2018-01-30T06:50:55.240Z,2.28
2018-01-30T06:51:58.609Z,2.15
2018-01-30T06:53:01.093Z,2.20
2018-01-30T06:54:04.387Z,2.42
2018-01-30T06:55:07.671Z,2.42
2018-01-30T06:56:10.997Z,2.65
2018-01-30T06:57:13.524Z,2.20
2018-01-30T06:58:16.040Z,2.17
2018-01-30T06:59:18.601Z,2.35
2018-01-30T07:00:21.120Z,2.90
2018-01-30T07:01:23.635Z,2.15
2018-01-30T07:02:26.153Z,2.67
2018-01-30T07:03:28.697Z,2.17
2018-01-30T07:04:31.989Z,2.35
2018-01-30T07:05:35.305Z,2.30
2018-01-30T07:06:37.820Z,3.25
2018-01-30T07:07:40.471Z,1.90
2018-01-30T07:08:42.977Z,2.50
2018-01-30T07:09:46.316Z,1.90
2018-01-30T07:10:48.834Z,2.12
2018-01-30T07:11:52.123Z,2.37
2018-01-30T07:12:54.642Z,2.05
2018-01-30T07:13:57.157Z,2.10
2018-01-30T07:14:59.717Z,2.22
2018-01-30T07:16:03.000Z,1.87
2018-01-30T07:17:05.555Z,2.83
2018-01-30T07:18:08.853Z,2.75
2018-01-30T07:19:11.388Z,2.58
2018-01-30T07:20:13.940Z,2.10
2018-01-30T07:21:16.453Z,2.75
2018-01-30T07:22:18.984Z,3.00
2018-01-30T07:23:21.508Z,2.50
2018-01-30T07:24:24.065Z,3.12
2018-01-30T07:25:26.581Z,3.10
2018-01-30T07:26:29.094Z,3.30
2018-01-30T07:27:31.624Z,2.70
2018-01-30T07:28:34.140Z,3.40
2018-01-30T07:29:36.684Z,3.35
2018-01-30T07:30:39.193Z,3.35
2018-01-30T07:31:41.751Z,3.10
2018-01-30T07:32:44.273Z,3.50
2018-01-30T07:33:47.549Z,3.37
2018-01-30T07:34:50.141Z,4.40
2018-01-30T07:35:52.664Z,3.33
2018-01-30T07:36:55.991Z,4.37
2018-01-30T07:37:58.509Z,4.40
2018-01-30T07:39:01.026Z,4.20
2018-01-30T07:40:03.593Z,4.40
2018-01-30T07:41:06.124Z,4.32
2018-01-30T07:42:08.649Z,4.72
2018-01-30T07:43:11.168Z,5.47
2018-01-30T07:44:13.692Z,4.97
2018-01-30T07:45:16.252Z,4.47
2018-01-30T07:46:18.762Z,3.50
2018-01-30T07:47:22.046Z,4.30
2018-01-30T07:48:25.331Z,3.75
2018-01-30T07:49:28.606Z,4.45
2018-01-30T07:50:31.929Z,4.10
2018-01-30T07:51:34.444Z,3.30
2018-01-30T07:52:36.952Z,3.30
2018-01-30T07:53:39.516Z,3.33
2018-01-30T07:54:42.025Z,3.10
2018-01-30T07:55:44.552Z,3.55
2018-01-30T07:56:47.112Z,3.20
2018-01-30T07:57:49.624Z,3.45
2018-01-30T07:58:52.198Z,3.45
2018-01-30T07:59:54.724Z,4.43
2018-01-30T08:00:57.237Z,3.20
2018-01-30T08:01:59.761Z,3.00
2018-01-30T08:03:02.272Z,4.25
2018-01-30T08:04:05.589Z,2.80
2018-01-30T08:05:08.121Z,2.97
2018-01-30T08:06:10.676Z,2.67
2018-01-30T08:07:13.198Z,2.75
2018-01-30T08:08:15.707Z,3.10
2018-01-30T08:09:18.225Z,3.08
2018-01-30T08:10:20.750Z,2.60
2018-01-30T08:11:23.329Z,2.70
2018-01-30T08:12:26.613Z,2.78
2018-01-30T08:13:29.989Z,3.42
2018-01-30T08:14:32.499Z,2.80
2018-01-30T08:15:35.020Z,2.42
2018-01-30T08:16:37.569Z,2.70
2018-01-30T08:17:40.115Z,3.65
2018-01-30T08:18:42.624Z,2.83
2018-01-30T08:19:45.911Z,2.45
2018-01-30T08:20:49.194Z,3.58
2018-01-30T08:21:52.518Z,3.35
2018-01-30T08:22:55.037Z,3.15
2018-01-30T08:23:57.737Z,3.50
2018-01-30T08:25:00.251Z,3.70
2018-01-30T08:26:02.764Z,3.95
2018-01-30T08:27:05.314Z,3.65
2018-01-30T08:28:08.653Z,3.58
2018-01-30T08:29:11.169Z,3.22
2018-01-30T08:30:14.453Z,3.10
2018-01-30T08:31:17.729Z,3.28
2018-01-30T08:32:21.011Z,3.45
2018-01-30T08:33:24.336Z,3.15
2018-01-30T08:34:26.860Z,2.97
2018-01-30T08:35:30.161Z,3.28
2018-01-30T08:36:32.681Z,3.20
2018-01-30T08:37:35.184Z,3.90
2018-01-30T08:38:38.518Z,3.85
2018-01-30T08:39:41.049Z,2.85
2018-01-30T08:40:43.568Z,3.17
2018-01-30T08:41:46.089Z,3.40
2018-01-30T08:42:48.618Z,3.58
2018-01-30T08:43:51.949Z,3.10
2018-01-30T08:44:54.476Z,3.95
2018-01-30T08:45:57.760Z,3.28
2018-01-30T08:47:01.052Z,3.08
2018-01-30T08:48:04.335Z,3.00
2018-01-30T08:49:07.660Z,3.25
2018-01-30T08:50:10.181Z,2.97
2018-01-30T08:51:13.468Z,2.97
2018-01-30T08:52:16.756Z,3.33
2018-01-30T08:53:20.037Z,3.00
2018-01-30T08:54:23.353Z,4.18
2018-01-30T08:55:25.874Z,3.17
2018-01-30T08:56:29.160Z,2.83
2018-01-30T08:57:32.446Z,2.87
2018-01-30T08:58:35.735Z,3.30
2018-01-30T08:59:39.062Z,3.15
2018-01-30T09:00:41.580Z,2.95
2018-01-30T09:01:44.858Z,3.75
2018-01-30T09:02:48.135Z,3.37
2018-01-30T09:03:50.689Z,3.35
2018-01-30T09:04:53.236Z,3.80
2018-01-30T09:05:55.772Z,3.12
2018-01-30T09:06:58.326Z,2.75
2018-01-30T09:08:00.852Z,3.50
2018-01-30T09:09:03.360Z,3.65
2018-01-30T09:10:05.879Z,2.78
2018-01-30T09:11:08.398Z,3.05
2018-01-30T09:12:10.941Z,2.90
2018-01-30T09:13:14.241Z,2.75
2018-01-30T09:14:16.749Z,3.80
2018-01-30T09:15:19.271Z,2.60
2018-01-30T09:16:21.792Z,2.90
2018-01-30T09:17:24.488Z,2.92
2018-01-30T09:18:27.765Z,3.45
2018-01-30T09:19:30.290Z,3.65
2018-01-30T09:20:32.807Z,3.15
2018-01-30T09:21:36.084Z,3.15
2018-01-30T09:22:38.634Z,3.90
2018-01-30T09:23:41.182Z,3.10
2018-01-30T09:24:43.705Z,3.92
2018-01-30T09:25:46.226Z,3.05
2018-01-30T09:26:48.765Z,3.40
2018-01-30T09:27:51.321Z,3.40
2018-01-30T09:28:53.834Z,2.90
2018-01-30T09:29:56.388Z,3.00
2018-01-30T09:30:58.901Z,3.33
2018-01-30T09:32:01.422Z,2.95
2018-01-30T09:33:03.941Z,3.45
2018-01-30T09:34:06.457Z,3.40
2018-01-30T09:35:08.996Z,2.90
2018-01-30T09:36:11.505Z,2.83
2018-01-30T09:37:14.836Z,2.62
2018-01-30T09:38:17.369Z,2.70
2018-01-30T09:39:20.656Z,3.05
2018-01-30T09:40:23.933Z,3.20
2018-01-30T09:41:27.213Z,3.10
2018-01-30T09:42:30.524Z,2.90
2018-01-30T09:43:33.045Z,3.12
2018-01-30T09:44:35.555Z,2.65
2018-01-30T09:45:38.073Z,3.62
2018-01-30T09:46:40.586Z,3.17
2018-01-30T09:47:43.138Z,3.50
2018-01-30T09:48:46.416Z,4.12
2018-01-30T09:49:49.709Z,3.45
2018-01-30T09:50:52.226Z,3.28
2018-01-30T09:51:54.737Z,2.78
2018-01-30T09:52:58.042Z,2.75
2018-01-30T09:54:00.548Z,3.12
2018-01-30T09:55:03.093Z,3.05
2018-01-30T09:56:05.609Z,2.78
2018-01-30T09:57:08.890Z,3.22
2018-01-30T09:58:12.204Z,3.15
2018-01-30T09:59:14.715Z,3.28
2018-01-30T10:00:17.296Z,3.05
2018-01-30T10:01:19.812Z,2.53
2018-01-30T10:02:22.328Z,2.70
2018-01-30T10:03:24.836Z,3.80
2018-01-30T10:04:27.358Z,3.00
2018-01-30T10:05:29.917Z,3.50
2018-01-30T10:06:32.424Z,3.10
2018-01-30T10:07:34.949Z,2.67
2018-01-30T10:08:37.463Z,2.45
2018-01-30T10:09:39.984Z,3.20
2018-01-30T10:10:42.534Z,3.15
2018-01-30T10:11:45.053Z,3.45
2018-01-30T10:13:56.613Z,3.22
2018-01-30T10:14:59.902Z,3.60
2018-01-30T10:16:03.184Z,3.65
2018-01-30T10:17:06.492Z,2.85
2018-01-30T10:18:09.006Z,2.58
2018-01-30T10:19:11.525Z,2.80
2018-01-30T10:20:14.040Z,2.72
2018-01-30T10:21:16.560Z,2.70
2018-01-30T10:22:19.120Z,3.10
2018-01-30T10:23:21.674Z,3.25
2018-01-30T10:24:24.192Z,3.00
2018-01-30T10:25:26.717Z,2.30
2018-01-30T10:26:29.241Z,2.83
2018-01-30T10:27:31.795Z,2.60
2018-01-30T10:28:34.314Z,3.05
2018-01-30T10:29:36.861Z,2.65
2018-01-30T10:30:40.144Z,2.72
2018-01-30T10:31:43.423Z,3.30
2018-01-30T10:32:46.709Z,2.50
2018-01-30T10:33:50.036Z,3.03
2018-01-30T10:34:52.556Z,2.83
2018-01-30T10:35:55.840Z,2.97
2018-01-30T10:36:59.122Z,3.22
2018-01-30T10:38:02.437Z,3.22
2018-01-30T10:39:04.985Z,2.40
2018-01-30T10:40:08.274Z,3.40
2018-01-30T10:41:10.789Z,3.00
2018-01-30T10:42:13.337Z,3.15
2018-01-30T10:43:15.849Z,3.05
2018-01-30T10:44:18.366Z,3.72
2018-01-30T10:45:21.026Z,3.83
2018-01-30T10:46:23.542Z,2.20
2018-01-30T10:47:26.058Z,2.92
2018-01-30T10:48:28.564Z,2.80
2018-01-30T10:49:31.086Z,3.58
2018-01-30T10:50:33.641Z,2.90
2018-01-30T10:51:36.158Z,2.97
2018-01-30T10:52:38.678Z,2.62
2018-01-30T10:53:41.237Z,2.80
2018-01-30T10:54:43.816Z,2.28
2018-01-30T10:55:46.344Z,3.20
2018-01-30T10:56:49.684Z,3.12
2018-01-30T10:57:52.199Z,3.00
2018-01-30T10:58:55.495Z,2.75
2018-01-30T10:59:58.791Z,3.22
2018-01-30T11:01:01.313Z,2.70
2018-01-30T11:02:03.862Z,3.17
2018-01-30T11:03:06.372Z,2.97
2018-01-30T11:04:09.665Z,2.95
2018-01-30T11:05:12.196Z,2.70
2018-01-30T11:06:14.713Z,2.85
2018-01-30T11:07:17.264Z,2.80
2018-01-30T11:08:19.781Z,3.40
2018-01-30T11:09:22.288Z,3.60
2018-01-30T11:10:25.565Z,2.67
2018-01-30T11:11:29.021Z,3.70
2018-01-30T11:12:31.585Z,3.40
2018-01-30T11:13:34.110Z,3.40
2018-01-30T11:14:36.636Z,2.80
2018-01-30T11:15:39.152Z,2.87
2018-01-30T11:16:41.669Z,2.72
2018-01-30T11:17:45.020Z,2.55
2018-01-30T11:18:47.535Z,2.95
2018-01-30T11:19:50.814Z,2.80
2018-01-30T11:20:54.102Z,3.08
2018-01-30T11:21:57.417Z,3.33
2018-01-30T11:22:59.989Z,3.22
2018-01-30T11:24:02.505Z,3.37
2018-01-30T11:25:05.016Z,2.70
2018-01-30T11:26:07.533Z,2.78
2018-01-30T11:27:10.054Z,2.90
2018-01-30T11:28:12.624Z,3.65
2018-01-30T11:29:15.139Z,2.60
2018-01-30T11:30:18.434Z,2.87
2018-01-30T11:31:21.734Z,3.50
2018-01-30T11:32:24.305Z,3.20
2018-01-30T11:33:26.866Z,3.85
2018-01-30T11:34:29.389Z,3.33
2018-01-30T11:35:31.966Z,3.40
2018-01-30T11:36:34.574Z,3.20
2018-01-30T11:37:37.106Z,3.92
2018-01-30T11:38:40.451Z,3.83
2018-01-30T11:39:42.980Z,3.30
2018-01-30T11:40:45.497Z,3.20
2018-01-30T11:41:48.027Z,2.65
2018-01-30T11:42:50.536Z,3.45
2018-01-30T11:43:53.082Z,3.15
2018-01-30T11:44:55.641Z,3.00
2018-01-30T11:45:58.217Z,2.62
2018-01-30T11:47:00.736Z,3.20
2018-01-30T11:48:04.036Z,3.25
2018-01-30T11:49:06.553Z,3.15
2018-01-30T11:50:09.145Z,3.22
2018-01-30T11:51:12.428Z,3.05
2018-01-30T11:52:15.712Z,2.72
2018-01-30T11:53:19.001Z,3.15
2018-01-30T11:54:21.528Z,2.87
2018-01-30T11:55:24.078Z,2.95
2018-01-30T11:56:26.597Z,2.85
2018-01-30T11:57:29.882Z,2.87
2018-01-30T11:58:33.162Z,3.50
2018-01-30T11:59:36.427Z,3.55
2018-01-30T12:00:38.989Z,3.45
2018-01-30T12:01:41.505Z,3.10
2018-01-30T12:02:44.034Z,3.20
2018-01-30T12:03:47.324Z,3.47
2018-01-30T12:04:50.621Z,3.20
2018-01-30T12:05:53.167Z,2.95
2018-01-30T12:06:56.438Z,2.90
2018-01-30T12:07:59.034Z,3.25
2018-01-30T12:09:01.557Z,3.03
2018-01-30T12:10:04.105Z,2.83
2018-01-30T12:11:06.616Z,4.40
2018-01-30T12:12:09.897Z,3.00
2018-01-30T12:13:13.228Z,2.83
2018-01-30T12:14:15.741Z,3.25
2018-01-30T12:15:18.260Z,3.20
2018-01-30T12:16:20.801Z,3.33
2018-01-30T12:17:23.324Z,2.85
2018-01-30T12:18:25.882Z,2.97
2018-01-30T12:19:28.436Z,2.90
2018-01-30T12:20:30.992Z,3.40
2018-01-30T12:21:33.513Z,3.58
2018-01-30T12:22:36.793Z,3.42
2018-01-30T12:23:39.317Z,2.83
2018-01-30T12:24:41.882Z,2.78
2018-01-30T12:25:44.396Z,3.40
2018-01-30T12:26:47.685Z,3.75
2018-01-30T12:27:51.000Z,3.15
2018-01-30T12:28:53.514Z,3.08
2018-01-30T12:29:56.073Z,3.95
2018-01-30T12:30:58.603Z,3.65
2018-01-30T12:32:01.194Z,3.50
2018-01-30T12:33:03.712Z,4.12
2018-01-30T12:34:06.242Z,3.20
2018-01-30T12:35:08.754Z,3.22
2018-01-30T12:36:11.273Z,4.15
2018-01-30T12:37:13.831Z,3.45
2018-01-30T12:38:16.350Z,3.53
2018-01-30T12:39:18.896Z,4.20
2018-01-30T12:40:22.182Z,4.00
2018-01-30T12:41:25.461Z,3.58
2018-01-30T12:42:28.780Z,3.70
2018-01-30T12:44:40.955Z,3.83
2018-01-30T12:45:43.478Z,3.80
2018-01-30T12:46:46.014Z,3.50
2018-01-30T12:47:48.529Z,3.30
2018-01-30T12:48:51.097Z,3.78
2018-01-30T12:49:53.613Z,3.70
2018-01-30T12:50:56.126Z,3.60
2018-01-30T12:51:58.637Z,3.53
2018-01-30T12:53:01.153Z,3.40
2018-01-30T12:54:03.694Z,3.65
2018-01-30T12:55:06.244Z,3.55
2018-01-30T12:56:08.757Z,3.67
2018-01-30T12:57:11.308Z,3.45
2018-01-30T12:58:13.825Z,2.75
2018-01-30T12:59:16.342Z,3.60
2018-01-30T13:00:18.864Z,3.87
2018-01-30T13:01:21.411Z,3.53
2018-01-30T13:02:24.689Z,3.85
2018-01-30T13:03:27.966Z,3.80
2018-01-30T13:04:31.281Z,3.55
2018-01-30T13:05:33.793Z,3.83
2018-01-30T13:06:36.312Z,3.10
2018-01-30T13:07:38.869Z,3.40
2018-01-30T13:08:41.382Z,3.67
2018-01-30T13:09:43.892Z,3.78
2018-01-30T13:10:46.418Z,3.65
2018-01-30T13:11:48.927Z,3.17
2018-01-30T13:12:51.473Z,3.72
2018-01-30T13:13:54.819Z,3.62
2018-01-30T13:14:57.328Z,4.70
2018-01-30T13:16:00.615Z,4.15
2018-01-30T13:17:03.184Z,3.53
2018-01-30T13:18:06.456Z,3.08
2018-01-30T13:19:09.733Z,3.60
2018-01-30T13:20:12.254Z,3.45
2018-01-30T13:21:14.761Z,3.55
2018-01-30T13:22:17.316Z,3.70
2018-01-30T13:23:19.866Z,3.35
2018-01-30T13:24:22.378Z,3.45
2018-01-30T13:25:25.656Z,3.25
2018-01-30T13:26:28.938Z,3.90
2018-01-30T13:27:32.253Z,4.25
2018-01-30T13:28:34.782Z,3.40
2018-01-30T13:29:38.065Z,3.20
2018-01-30T13:30:41.411Z,3.55
2018-01-30T13:31:43.937Z,3.60
2018-01-30T13:32:46.466Z,4.12
2018-01-30T13:33:48.993Z,3.97
2018-01-30T13:34:51.504Z,3.80
2018-01-30T13:35:54.160Z,3.30
2018-01-30T13:36:56.669Z,2.87
2018-01-30T13:37:59.213Z,3.67
2018-01-30T13:39:01.724Z,4.47
2018-01-30T13:40:04.233Z,3.65
2018-01-30T13:41:06.784Z,4.55
2018-01-30T13:42:09.287Z,4.25
2018-01-30T13:43:12.608Z,3.72
2018-01-30T13:44:15.155Z,4.12
2018-01-30T13:45:17.693Z,4.15
2018-01-30T13:46:20.216Z,3.70
2018-01-30T13:47:22.733Z,4.47
2018-01-30T13:48:26.014Z,4.00
2018-01-30T13:49:29.293Z,3.50
2018-01-30T13:50:32.612Z,3.72
2018-01-30T13:51:35.129Z,3.10
2018-01-30T13:52:37.654Z,3.85
2018-01-30T13:53:40.965Z,5.00
2018-01-30T13:54:43.481Z,3.97
2018-01-30T13:55:46.029Z,4.03
2018-01-30T13:56:49.321Z,3.85
2018-01-30T13:57:52.596Z,4.15